Terminal Aerodrome Forecast
Issued by NWS Lake Charles, LA

Home | Current Version | Previous Version | Text Only | Print | Product List | Glossary On
Versions: 1 2 3 4 5 6 7 8 9 10 11 12 13
116
FTUS44 KLCH 061120
TAFBPT
TAF
KBPT 061120Z 0612/0712 VRB03KT P6SM VCSH SCT050 OVC090
     FM061300 13007KT P6SM -RA BKN050 OVC080
     FM061600 14008KT P6SM SCT050 BKN200
     FM062000 33006KT P6SM SKC=

USA.gov is the U.S. government's official web portal to all federal, state and local government web resources and services.